createdAt,value
2023-04-11T00:01:34.511Z,15.53
2023-04-11T00:06:37.230Z,15.63
2023-04-11T00:11:40.057Z,15.72
2023-04-11T00:16:43.001Z,15.50
2023-04-11T00:21:45.644Z,15.48
2023-04-11T00:26:48.302Z,15.46
2023-04-11T00:31:52.915Z,15.53
2023-04-11T00:36:56.237Z,15.55
2023-04-11T00:42:09.085Z,15.67
2023-04-11T00:47:12.690Z,15.58
2023-04-11T00:52:15.354Z,15.53
2023-04-11T00:57:18.249Z,15.53
2023-04-11T01:02:20.874Z,15.56
2023-04-11T01:07:26.120Z,15.58
2023-04-11T01:12:30.238Z,15.69
2023-04-11T01:17:34.181Z,15.62
2023-04-11T01:22:38.901Z,15.43
2023-04-11T01:27:43.220Z,15.42
2023-04-11T01:32:46.258Z,15.61
2023-04-11T01:37:49.101Z,15.44
2023-04-11T01:42:53.144Z,15.09
2023-04-11T01:47:57.297Z,14.86
2023-04-11T01:53:00.127Z,14.92
2023-04-11T01:58:03.178Z,14.95
2023-04-11T02:03:06.119Z,14.76
2023-04-11T02:08:08.973Z,14.34
2023-04-11T02:13:11.924Z,14.25
2023-04-11T02:18:14.499Z,14.51
2023-04-11T02:23:17.223Z,15.48
2023-04-11T02:28:22.803Z,15.74
2023-04-11T02:33:28.456Z,15.15
2023-04-11T02:38:31.334Z,14.88
2023-04-11T02:43:34.824Z,14.64
2023-04-11T02:48:37.564Z,13.60
2023-04-11T02:53:41.328Z,12.80
2023-04-11T02:58:49.043Z,12.43
2023-04-11T03:03:54.419Z,12.05
2023-04-11T03:09:00.835Z,11.77
2023-04-11T03:14:04.093Z,11.66
2023-04-11T03:19:07.086Z,11.70
2023-04-11T03:24:09.817Z,11.53
2023-04-11T03:29:12.470Z,11.42
2023-04-11T03:34:27.985Z,11.59
2023-04-11T03:39:33.185Z,11.42
2023-04-11T03:44:36.054Z,11.37
2023-04-11T03:49:38.712Z,11.33
2023-04-11T03:54:41.609Z,11.27
2023-04-11T03:59:48.218Z,11.19
2023-04-11T04:04:58.884Z,11.39
2023-04-11T04:10:08.614Z,11.34
2023-04-11T04:15:15.045Z,11.67
2023-04-11T04:20:21.049Z,11.51
2023-04-11T04:25:29.091Z,11.41
2023-04-11T04:30:34.246Z,11.45
2023-04-11T04:35:42.508Z,11.80
2023-04-11T04:40:45.252Z,11.83
2023-04-11T04:45:48.230Z,12.58
2023-04-11T04:50:56.402Z,11.86
2023-04-11T04:55:59.293Z,12.03
2023-04-11T05:01:05.413Z,11.89
2023-04-11T05:06:10.064Z,12.09
2023-04-11T05:11:13.854Z,12.21
2023-04-11T05:16:18.001Z,12.77
2023-04-11T05:21:21.286Z,11.93
2023-04-11T05:26:27.822Z,11.66
2023-04-11T05:31:31.076Z,11.07
2023-04-11T05:36:34.314Z,10.29
2023-04-11T05:41:37.321Z,10.02
2023-04-11T05:46:39.920Z,9.98
2023-04-11T05:51:42.617Z,10.01
2023-04-11T05:56:45.269Z,9.93
2023-04-11T06:01:48.191Z,10.00
2023-04-11T06:06:52.232Z,9.77
2023-04-11T06:11:55.041Z,9.82
2023-04-11T06:16:57.652Z,9.71
2023-04-11T06:22:00.403Z,9.74
2023-04-11T06:27:03.962Z,9.74
2023-04-11T06:32:07.942Z,9.54
2023-04-11T06:37:10.746Z,9.63
2023-04-11T06:42:13.402Z,9.81
2023-04-11T06:47:19.685Z,9.77
2023-04-11T06:52:22.647Z,9.89
2023-04-11T06:57:25.397Z,10.06
2023-04-11T07:02:28.218Z,9.89
2023-04-11T07:07:31.745Z,9.75
2023-04-11T07:12:34.822Z,9.81
2023-04-11T07:17:38.091Z,9.93
2023-04-11T07:22:45.476Z,10.24
2023-04-11T07:27:49.850Z,10.43
2023-04-11T07:32:52.542Z,10.79
2023-04-11T07:37:57.652Z,10.69
2023-04-11T07:43:02.278Z,11.76
2023-04-11T07:48:05.507Z,12.22
2023-04-11T07:53:08.237Z,13.38
2023-04-11T07:58:11.150Z,14.13
2023-04-11T08:03:14.029Z,15.09
2023-04-11T08:08:17.172Z,13.91
2023-04-11T08:13:19.905Z,13.46
2023-04-11T08:18:23.443Z,14.58
2023-04-11T08:23:26.283Z,14.24
2023-04-11T08:28:28.972Z,14.56
2023-04-11T08:33:32.441Z,14.78
2023-04-11T08:38:36.138Z,14.66
2023-04-11T08:43:44.114Z,16.36
2023-04-11T08:48:49.799Z,16.96
2023-04-11T08:53:58.625Z,16.83
2023-04-11T08:59:02.704Z,17.03
2023-04-11T09:04:06.773Z,17.95
2023-04-11T09:09:27.905Z,19.07
2023-04-11T09:14:31.677Z,17.59
2023-04-11T09:19:36.113Z,17.70
2023-04-11T09:24:39.042Z,18.05
2023-04-11T09:29:46.797Z,15.91
2023-04-11T09:34:49.937Z,16.12
2023-04-11T09:40:11.830Z,16.76
2023-04-11T09:45:21.311Z,16.38
2023-04-11T09:50:25.660Z,16.07
2023-04-11T09:55:28.373Z,16.00
2023-04-11T10:00:32.716Z,18.49
2023-04-11T10:05:35.739Z,16.51
2023-04-11T10:10:38.695Z,19.63
2023-04-11T10:16:11.525Z,19.37
2023-04-11T10:21:36.606Z,18.16
2023-04-11T10:26:51.847Z,16.53
2023-04-11T10:32:12.834Z,16.55
2023-04-11T10:37:15.705Z,18.17
2023-04-11T10:42:34.949Z,17.40
2023-04-11T10:47:37.613Z,19.01
2023-04-11T10:52:40.243Z,20.61
2023-04-11T10:58:11.788Z,21.00
2023-04-11T11:03:25.901Z,20.40
2023-04-11T11:08:38.249Z,21.73
2023-04-11T11:13:50.870Z,17.81
2023-04-11T11:19:02.769Z,17.09
2023-04-11T11:24:06.171Z,16.59
2023-04-11T11:29:10.270Z,16.88
2023-04-11T11:34:23.521Z,18.62
2023-04-11T11:39:28.469Z,19.19
2023-04-11T11:44:33.310Z,18.17
2023-04-11T11:49:56.321Z,21.44
2023-04-11T11:54:58.958Z,23.17
2023-04-11T12:00:06.319Z,20.79
2023-04-11T12:05:11.984Z,23.18
2023-04-11T12:10:17.274Z,23.45
2023-04-11T12:15:22.067Z,23.38
2023-04-11T12:20:26.755Z,21.56
2023-04-11T12:25:30.532Z,19.91
2023-04-11T12:30:33.734Z,20.24
2023-04-11T12:35:36.547Z,20.61
2023-04-11T12:40:39.296Z,18.92
2023-04-11T12:45:42.260Z,18.60
2023-04-11T12:50:44.943Z,18.44
2023-04-11T12:55:47.743Z,16.98
2023-04-11T13:00:50.740Z,18.29
2023-04-11T13:05:53.838Z,18.51
2023-04-11T13:10:56.960Z,19.52
2023-04-11T13:16:00.461Z,18.92
2023-04-11T13:21:03.585Z,17.42
2023-04-11T13:26:07.473Z,17.77
2023-04-11T13:31:14.363Z,17.62
2023-04-11T13:36:17.068Z,19.22
2023-04-11T13:41:19.642Z,20.46
2023-04-11T13:46:22.538Z,20.90
2023-04-11T13:51:25.142Z,22.74
2023-04-11T13:56:27.798Z,22.90
2023-04-11T14:01:30.673Z,23.14
2023-04-11T14:06:35.502Z,21.38
2023-04-11T14:11:38.504Z,21.85
2023-04-11T14:16:41.764Z,22.32
2023-04-11T14:21:44.554Z,19.15
2023-04-11T14:26:47.291Z,18.28
2023-04-11T14:31:50.448Z,20.35
2023-04-11T14:36:53.383Z,18.24
2023-04-11T14:41:56.576Z,18.93
2023-04-11T14:46:59.175Z,18.47
2023-04-11T14:52:02.384Z,17.79
2023-04-11T14:57:05.731Z,19.11
2023-04-11T15:02:08.985Z,20.78
2023-04-11T15:07:11.879Z,20.21
2023-04-11T15:12:14.378Z,19.15
2023-04-11T15:17:17.265Z,18.77
2023-04-11T15:22:19.885Z,19.34
2023-04-11T15:27:22.662Z,19.28
2023-04-11T15:32:25.757Z,19.45
2023-04-11T15:37:28.636Z,19.05
2023-04-11T15:42:34.439Z,17.37
2023-04-11T15:47:37.785Z,16.66
2023-04-11T15:52:40.884Z,17.60
2023-04-11T15:57:43.461Z,18.06
2023-04-11T16:02:47.389Z,18.14
2023-04-11T16:07:50.505Z,18.01
2023-04-11T16:12:53.310Z,17.59
2023-04-11T16:17:56.246Z,17.50
2023-04-11T16:22:59.065Z,16.82
2023-04-11T16:28:02.272Z,16.79
2023-04-11T16:33:05.441Z,16.77
2023-04-11T16:38:08.402Z,16.20
2023-04-11T16:43:11.330Z,16.11
2023-04-11T16:48:13.910Z,15.86
2023-04-11T16:53:18.698Z,16.03
2023-04-11T16:58:21.350Z,16.29
2023-04-11T17:03:24.356Z,16.28
2023-04-11T17:08:27.113Z,15.87
2023-04-11T17:13:29.738Z,15.41
2023-04-11T17:18:32.463Z,15.63
2023-04-11T17:23:43.169Z,15.54
2023-04-11T17:28:47.174Z,15.40
2023-04-11T17:33:49.816Z,15.29
2023-04-11T17:38:54.611Z,15.16
2023-04-11T17:43:57.595Z,15.21
2023-04-11T17:49:00.377Z,15.17
2023-04-11T17:54:03.262Z,14.98
2023-04-11T17:59:06.606Z,14.87
2023-04-11T18:04:09.899Z,14.68
2023-04-11T18:09:12.734Z,14.60
2023-04-11T18:14:15.294Z,14.42
2023-04-11T18:19:18.474Z,14.41
2023-04-11T18:24:21.324Z,14.42
2023-04-11T18:29:23.972Z,14.35
2023-04-11T18:34:26.823Z,14.26
2023-04-11T18:39:29.664Z,14.18
2023-04-11T18:44:32.660Z,14.15
2023-04-11T18:49:37.341Z,14.14
2023-04-11T18:54:40.267Z,14.08
2023-04-11T18:59:44.302Z,14.10
2023-04-11T19:04:47.536Z,13.92
2023-04-11T19:09:50.255Z,13.95
2023-04-11T19:14:53.247Z,13.95
2023-04-11T19:19:56.069Z,13.79
2023-04-11T19:24:58.955Z,13.69
2023-04-11T19:30:01.785Z,13.48
2023-04-11T19:35:06.018Z,13.54
2023-04-11T19:40:19.533Z,13.66
2023-04-11T19:45:22.395Z,13.64
2023-04-11T19:50:25.734Z,13.60
2023-04-11T19:55:29.267Z,13.68
2023-04-11T20:00:36.599Z,13.54
2023-04-11T20:05:39.325Z,13.64
2023-04-11T20:10:41.988Z,13.83
2023-04-11T20:15:44.847Z,13.86
2023-04-11T20:20:47.492Z,13.91
2023-04-11T20:25:50.188Z,13.75
2023-04-11T20:30:52.927Z,13.56
2023-04-11T20:35:57.015Z,13.65
2023-04-11T20:41:03.987Z,13.85
2023-04-11T20:46:08.869Z,13.92
2023-04-11T20:51:11.582Z,13.88
2023-04-11T20:56:15.164Z,13.82
2023-04-11T21:01:18.294Z,13.75
2023-04-11T21:06:21.391Z,13.84
2023-04-11T21:11:24.490Z,13.68
2023-04-11T21:16:27.398Z,13.41
2023-04-11T21:21:30.059Z,13.29
2023-04-11T21:26:32.684Z,13.36
2023-04-11T21:31:35.833Z,13.18
2023-04-11T21:36:39.016Z,13.19
2023-04-11T21:41:41.737Z,13.13
2023-04-11T21:46:45.066Z,13.18
2023-04-11T21:51:47.718Z,13.14
2023-04-11T21:56:50.395Z,13.25
2023-04-11T22:01:53.108Z,13.45
2023-04-11T22:06:58.683Z,12.79
2023-04-11T22:12:01.845Z,12.80
2023-04-11T22:17:04.671Z,12.78
2023-04-11T22:22:08.483Z,12.44
2023-04-11T22:27:11.085Z,12.31
2023-04-11T22:32:13.823Z,12.20
2023-04-11T22:37:16.686Z,12.19
2023-04-11T22:42:19.524Z,12.25
2023-04-11T22:47:22.118Z,12.47
2023-04-11T22:52:26.247Z,12.62
2023-04-11T22:57:28.920Z,12.16
2023-04-11T23:02:34.642Z,11.79
2023-04-11T23:07:37.580Z,11.74
2023-04-11T23:12:44.615Z,11.84
2023-04-11T23:17:47.307Z,11.83
2023-04-11T23:22:49.951Z,11.70
2023-04-11T23:27:52.838Z,11.75
2023-04-11T23:32:55.422Z,11.59
2023-04-11T23:38:00.111Z,11.29
2023-04-11T23:43:02.685Z,11.30
2023-04-11T23:48:05.822Z,11.25
2023-04-11T23:53:08.814Z,11.53
2023-04-11T23:58:11.614Z,11.50
